Time;durP1;ratioP1;P1;durP2;ratioP2;P2;SDS_P1;SDS_P2;PMS_P1;PMS_P2;Temp;Humidity;BMP_temperature;BMP_pressure;BME280_temperature;BME280_humidity;BME280_pressure;Samples;Min_cycle;Max_cycle;Signal;HPM_P1;HPM_P2
2024/02/29 00:04:04;;;;;;;13.45;9.90;;;;;;;7.60;61.56;100513.13;10434589;28;20048;-61
2024/02/29 00:09:07;;;;;;;11.23;9.77;;;;;;;7.59;61.90;100510.56;10425633;28;21073;-60
2024/02/29 00:14:09;;;;;;;11.73;10.52;;;;;;;7.65;62.05;100507.53;10437152;28;20528;-61
2024/02/29 00:19:13;;;;;;;11.47;10.27;;;;;;;7.42;61.36;100525.72;10424768;28;20041;-61
2024/02/29 00:24:15;;;;;;;12.23;11.02;;;;;;;7.27;62.10;100518.75;10416223;28;20064;-61
2024/02/29 00:29:17;;;;;;;11.57;10.30;;;;;;;7.24;63.11;100511.00;10432936;28;20136;-63
2024/02/29 00:34:18;;;;;;;11.13;9.75;;;;;;;7.20;63.24;100522.72;10438036;28;20525;-60
2024/02/29 00:39:20;;;;;;;11.82;9.85;;;;;;;6.99;63.32;100491.34;10422878;28;20048;-60
2024/02/29 00:44:21;;;;;;;11.73;10.23;;;;;;;7.18;63.48;100506.09;10435785;28;20109;-61
2024/02/29 00:49:23;;;;;;;11.55;10.35;;;;;;;7.06;63.51;100492.66;10446134;28;20056;-60
2024/02/29 00:54:25;;;;;;;10.32;9.27;;;;;;;7.07;63.94;100486.44;10441100;28;20764;-60
2024/02/29 00:59:26;;;;;;;10.40;9.35;;;;;;;7.02;63.92;100474.41;10435857;28;20040;-61
2024/02/29 01:04:28;;;;;;;10.70;9.55;;;;;;;7.19;64.17;100479.53;10399235;28;20198;-61
2024/02/29 01:09:29;;;;;;;12.07;9.95;;;;;;;7.24;63.88;100479.22;10426994;28;20044;-61
2024/02/29 01:14:30;;;;;;;12.05;9.95;;;;;;;7.25;64.08;100479.13;10419929;28;20048;-61
2024/02/29 01:19:32;;;;;;;11.07;9.98;;;;;;;7.27;63.81;100479.03;10412539;28;20061;-61
2024/02/29 01:24:36;;;;;;;11.98;9.75;;;;;;;7.05;64.07;100440.66;10430078;28;20057;-61
2024/02/29 01:29:39;;;;;;;12.82;10.65;;;;;;;7.16;63.96;100462.97;10444464;28;20553;-61
2024/02/29 01:34:40;;;;;;;11.23;10.13;;;;;;;7.08;64.58;100451.06;10438972;28;20068;-62
2024/02/29 01:39:42;;;;;;;11.10;9.93;;;;;;;6.99;64.60;100442.84;10431027;28;20202;-61
2024/02/29 01:44:56;;;;;;;11.48;10.07;;;;;;;7.05;64.37;100440.66;10444681;28;20664;-61
2024/02/29 01:50:02;;;;;;;11.00;9.70;;;;;;;7.05;64.21;100438.00;10427999;28;20112;-63
2024/02/29 01:55:05;;;;;;;9.90;8.88;;;;;;;7.03;64.32;100423.19;10437009;28;20052;-60
2024/02/29 02:00:08;;;;;;;12.02;9.90;;;;;;;6.92;64.58;100415.94;10444460;28;20048;-62
2024/02/29 02:05:10;;;;;;;11.50;9.95;;;;;;;6.98;64.96;100419.97;10429740;28;20726;-61
2024/02/29 02:10:11;;;;;;;11.45;10.10;;;;;;;6.81;65.46;100391.94;10399415;28;20136;-61
2024/02/29 02:15:13;;;;;;;10.90;9.80;;;;;;;6.86;65.52;100405.72;10442016;28;20062;-62
2024/02/29 02:20:18;;;;;;;11.82;10.52;;;;;;;6.84;65.51;100404.97;10422676;28;20490;-61
2024/02/29 02:25:19;;;;;;;;;;;;;;;6.81;65.37;100402.50;10423124;28;20125;-61
2024/02/29 02:30:21;;;;;;;11.25;9.13;;;;;;;6.57;65.93;100378.44;10441153;28;19987;-61
2024/02/29 02:35:22;;;;;;;11.95;10.75;;;;;;;6.69;66.15;100391.72;10441647;28;20048;-61
2024/02/29 02:40:26;;;;;;;11.98;10.60;;;;;;;6.68;65.51;100381.25;10436446;28;20658;-62
2024/02/29 02:45:28;;;;;;;11.82;10.63;;;;;;;6.64;65.86;100377.13;10435941;28;20689;-62
2024/02/29 02:50:29;;;;;;;10.65;9.60;;;;;;;6.63;66.11;100373.59;10433111;28;20554;-60
2024/02/29 02:55:31;;;;;;;10.80;9.73;;;;;;;6.59;66.18;100369.47;10426572;28;20048;-60
2024/02/29 03:00:33;;;;;;;11.80;10.10;;;;;;;6.52;66.51;100365.50;10436181;28;20199;-61
2024/02/29 03:05:36;;;;;;;11.98;10.23;;;;;;;6.50;66.63;100364.72;10443607;28;20613;-62
2024/02/29 03:10:38;;;;;;;10.25;9.25;;;;;;;6.51;66.19;100358.50;10438698;28;20268;-61
2024/02/29 03:15:40;;;;;;;11.40;9.52;;;;;;;6.47;66.46;100352.56;10435387;28;20101;-61
2024/02/29 03:20:44;;;;;;;11.55;10.20;;;;;;;6.42;66.99;100349.34;10433173;28;20060;-63
2024/02/29 03:25:46;;;;;;;13.13;10.25;;;;;;;6.39;66.85;100333.66;10440816;28;20172;-62
2024/02/29 03:30:48;;;;;;;10.10;9.20;;;;;;;6.39;67.31;100343.41;10411908;28;21083;-61
2024/02/29 03:35:49;;;;;;;11.20;9.18;;;;;;;6.30;67.30;100327.13;10437782;28;20040;-62
2024/02/29 03:40:51;;;;;;;11.15;9.15;;;;;;;6.26;67.51;100320.38;10429288;28;20043;-61
2024/02/29 03:45:53;;;;;;;10.05;8.90;;;;;;;6.27;67.13;100313.28;10419318;28;20695;-63
2024/02/29 03:50:54;;;;;;;11.75;8.65;;;;;;;6.21;66.73;100314.50;10430469;28;20052;-62
2024/02/29 03:55:56;;;;;;;9.25;8.30;;;;;;;6.16;66.57;100311.28;10424909;28;20176;-60
2024/02/29 04:01:00;;;;;;;9.43;8.30;;;;;;;6.10;66.90;100301.09;10402490;28;20068;-63
2024/02/29 04:06:02;;;;;;;8.18;6.93;;;;;;;6.08;66.98;100308.25;10432970;28;20151;-62
2024/02/29 04:11:04;;;;;;;8.35;7.43;;;;;;;5.88;66.68;100315.56;10438274;28;20181;-61
2024/02/29 04:16:06;;;;;;;7.88;7.07;;;;;;;5.87;67.50;100307.72;10434194;28;20048;-61
2024/02/29 04:21:08;;;;;;;8.02;7.22;;;;;;;5.89;67.51;100296.13;10441568;28;20491;-62
2024/02/29 04:26:10;;;;;;;7.72;6.88;;;;;;;5.90;67.21;100292.56;10435971;28;20056;-62
2024/02/29 04:31:12;;;;;;;10.95;7.53;;;;;;;5.83;67.11;100294.69;10378175;28;20058;-61
2024/02/29 04:36:14;;;;;;;7.47;6.78;;;;;;;5.81;67.69;100280.75;10430538;28;20068;-61
2024/02/29 04:41:16;;;;;;;8.05;7.35;;;;;;;5.75;67.60;100285.53;10400466;28;20698;-62
2024/02/29 04:46:17;;;;;;;8.52;6.85;;;;;;;5.70;67.12;100272.59;10419688;28;20525;-61
2024/02/29 04:51:19;;;;;;;8.00;7.20;;;;;;;5.74;67.59;100283.84;10433436;28;20134;-61
2024/02/29 04:56:20;;;;;;;8.57;7.57;;;;;;;5.74;67.78;100291.78;10431745;28;20140;-62
2024/02/29 05:01:22;;;;;;;7.57;6.85;;;;;;;5.58;67.39;100268.91;10427848;28;20052;-63
2024/02/29 05:06:24;;;;;;;7.55;6.70;;;;;;;5.46;67.53;100259.94;10426294;28;20045;-62
2024/02/29 05:11:26;;;;;;;8.80;6.65;;;;;;;5.55;68.01;100261.16;10426085;28;20638;-62
2024/02/29 05:16:27;;;;;;;9.13;8.23;;;;;;;5.60;67.96;100276.72;10408490;28;20044;-61
2024/02/29 05:21:29;;;;;;;7.57;6.88;;;;;;;5.61;67.92;100267.88;10431170;28;20420;-62
2024/02/29 05:26:31;;;;;;;10.32;7.90;;;;;;;5.49;67.65;100265.03;10418398;28;20137;-62
2024/02/29 05:31:32;;;;;;;8.20;7.40;;;;;;;5.38;67.90;100245.50;10401146;28;20609;-64
2024/02/29 05:36:33;;;;;;;9.80;7.38;;;;;;;5.47;68.38;100250.22;10426132;28;20049;-62
2024/02/29 05:41:35;;;;;;;8.25;7.40;;;;;;;5.49;68.65;100243.91;10411751;28;20143;-62
2024/02/29 05:46:37;;;;;;;8.90;7.90;;;;;;;5.34;68.38;100238.69;10430628;28;20261;-61
2024/02/29 05:51:39;;;;;;;10.38;9.27;;;;;;;5.34;69.19;100236.88;10409992;28;20116;-61
2024/02/29 05:56:41;;;;;;;9.65;8.68;;;;;;;5.27;69.09;100222.38;10415136;28;20048;-61
2024/02/29 06:01:43;;;;;;;10.88;9.77;;;;;;;5.23;68.81;100226.97;10408410;28;20163;-62
2024/02/29 06:06:45;;;;;;;10.73;9.10;;;;;;;5.22;68.99;100230.53;10417098;28;20697;-61
2024/02/29 06:11:47;;;;;;;11.55;8.55;;;;;;;5.30;69.13;100241.50;10410550;28;20436;-62
2024/02/29 06:16:50;;;;;;;9.65;8.20;;;;;;;5.18;69.79;100234.31;10422460;28;20059;-62
2024/02/29 06:21:51;;;;;;;10.63;8.75;;;;;;;5.31;69.85;100251.13;10410756;28;20182;-62
2024/02/29 06:26:54;;;;;;;12.18;10.10;;;;;;;5.34;69.92;100233.41;10412130;28;20601;-61
2024/02/29 06:31:57;;;;;;;11.63;9.65;;;;;;;5.09;69.79;100203.19;10437978;28;20147;-63
2024/02/29 06:36:58;;;;;;;10.27;9.13;;;;;;;5.38;70.18;100240.22;10409759;28;20064;-61
2024/02/29 06:42:00;;;;;;;10.35;9.23;;;;;;;5.38;70.23;100242.84;10433870;28;20068;-61
2024/02/29 06:47:02;;;;;;;11.35;10.25;;;;;;;5.44;70.24;100245.13;10440754;28;20052;-62
2024/02/29 06:52:04;;;;;;;12.60;9.75;;;;;;;5.44;70.20;100234.56;10439031;28;20052;-62
2024/02/29 06:57:06;;;;;;;12.23;9.80;;;;;;;5.51;70.04;100235.91;10419826;28;20649;-62
2024/02/29 07:02:07;;;;;;;11.65;10.45;;;;;;;5.55;70.49;100229.47;10426633;28;20064;-63
2024/02/29 07:07:09;;;;;;;14.93;11.45;;;;;;;5.54;70.25;100227.78;10425229;28;20067;-61
2024/02/29 07:12:11;;;;;;;13.23;9.95;;;;;;;5.69;70.43;100230.44;10414995;28;20052;-61
2024/02/29 07:17:12;;;;;;;17.17;11.38;;;;;;;5.73;69.98;100218.75;10422403;28;20851;-61
2024/02/29 07:22:13;;;;;;;15.48;11.63;;;;;;;5.83;69.76;100210.16;10430834;28;20345;-62
2024/02/29 07:27:15;;;;;;;13.30;11.15;;;;;;;5.96;69.76;100199.69;10417096;28;20047;-61
2024/02/29 07:32:16;;;;;;;13.65;11.65;;;;;;;6.04;69.49;100201.91;10398799;28;20710;-61
2024/02/29 07:37:18;;;;;;;16.90;12.30;;;;;;;6.08;70.02;100198.13;10401242;28;20059;-61
2024/02/29 07:42:20;;;;;;;15.02;11.75;;;;;;;6.16;69.38;100202.91;10414573;28;20040;-61
2024/02/29 07:47:25;;;;;;;18.35;12.40;;;;;;;6.31;69.05;100209.88;10438280;28;20083;-61
2024/02/29 07:52:27;;;;;;;15.30;12.50;;;;;;;6.48;68.65;100200.03;10412696;28;20720;-60
2024/02/29 07:57:28;;;;;;;18.75;13.98;;;;;;;6.52;68.44;100198.88;10417180;28;20063;-61
2024/02/29 08:02:30;;;;;;;17.67;12.60;;;;;;;6.64;68.66;100200.72;10417658;28;20443;-61
2024/02/29 08:07:31;;;;;;;16.25;12.80;;;;;;;6.74;68.09;100198.34;10429895;28;20044;-61
2024/02/29 08:12:33;;;;;;;16.35;13.23;;;;;;;6.92;67.87;100185.69;10413392;28;20059;-61
2024/02/29 08:17:34;;;;;;;17.33;13.40;;;;;;;6.97;67.46;100180.94;10433285;28;20131;-62
2024/02/29 08:22:36;;;;;;;16.27;13.10;;;;;;;7.04;67.40;100176.94;10428237;28;20059;-61
2024/02/29 08:27:37;;;;;;;20.48;14.55;;;;;;;7.03;67.44;100164.66;10419472;28;20451;-61
2024/02/29 08:32:39;;;;;;;18.27;13.25;;;;;;;7.28;67.11;100178.03;10396648;28;20053;-62
2024/02/29 08:37:44;;;;;;;17.92;14.02;;;;;;;7.40;67.16;100166.59;10399383;28;20059;-60
2024/02/29 08:42:45;;;;;;;20.30;15.07;;;;;;;7.52;67.09;100176.34;10423933;28;20962;-61
2024/02/29 08:47:48;;;;;;;19.75;15.65;;;;;;;7.73;66.59;100174.03;10410511;28;20048;-61
2024/02/29 08:52:50;;;;;;;21.50;15.98;;;;;;;7.95;65.81;100172.50;10405166;28;20076;-63
2024/02/29 08:57:51;;;;;;;20.90;15.98;;;;;;;8.09;65.57;100168.84;10347571;28;20060;-61
2024/02/29 09:02:53;;;;;;;21.48;16.92;;;;;;;8.30;65.40;100171.78;10398289;28;20058;-63
2024/02/29 09:07:55;;;;;;;22.20;16.23;;;;;;;8.58;65.24;100169.81;10436024;28;20055;-62
2024/02/29 09:12:57;;;;;;;20.77;16.27;;;;;;;8.78;64.63;100161.22;10417498;28;20120;-61
2024/02/29 09:17:59;;;;;;;22.92;17.27;;;;;;;8.95;63.17;100141.38;10417925;28;20098;-61
2024/02/29 09:23:02;;;;;;;21.40;17.02;;;;;;;9.26;62.62;100140.84;10439367;28;20064;-62
2024/02/29 09:28:06;;;;;;;29.00;17.60;;;;;;;9.51;62.02;100135.31;10438157;28;20136;-64
2024/02/29 09:33:07;;;;;;;23.65;17.05;;;;;;;9.83;61.38;100123.97;10435553;28;20056;-60
2024/02/29 09:38:09;;;;;;;22.95;17.60;;;;;;;10.17;60.13;100123.91;10434473;28;20119;-62
2024/02/29 09:43:11;;;;;;;23.83;19.50;;;;;;;10.50;58.37;100119.50;10439874;28;20442;-62
2024/02/29 09:48:14;;;;;;;23.80;18.30;;;;;;;10.53;58.37;100107.78;10412627;28;20173;-62
2024/02/29 09:53:18;;;;;;;24.90;19.38;;;;;;;10.87;58.26;100100.47;10412811;28;20049;-61
2024/02/29 09:58:22;;;;;;;24.80;19.77;;;;;;;11.21;56.78;100097.59;10424317;28;20044;-61
2024/02/29 10:03:27;;;;;;;26.83;20.83;;;;;;;11.45;56.38;100099.13;10409418;28;20162;-62
2024/02/29 10:08:28;;;;;;;26.65;20.73;;;;;;;11.71;55.06;100088.00;10431748;28;20293;-62
2024/02/29 10:13:38;;;;;;;23.13;19.70;;;;;;;12.02;54.46;100086.16;10425206;28;20060;-63
2024/02/29 10:18:40;;;;;;;22.70;19.10;;;;;;;12.30;53.47;100057.84;10424815;28;20051;-63
2024/02/29 10:23:43;;;;;;;25.30;20.60;;;;;;;12.71;53.01;100055.84;10431491;28;20099;-61
2024/02/29 10:28:46;;;;;;;26.85;20.05;;;;;;;13.07;50.99;100055.25;10414812;28;20159;-63
2024/02/29 10:33:48;;;;;;;23.95;18.90;;;;;;;13.58;50.24;100055.81;10435314;28;20140;-62
2024/02/29 10:38:49;;;;;;;22.38;19.88;;;;;;;13.99;48.91;100050.09;10433672;28;20685;-64
2024/02/29 10:43:54;;;;;;;24.70;20.02;;;;;;;14.37;48.36;100032.91;10432135;28;20062;-63
2024/02/29 10:49:22;;;;;;;23.08;19.45;;;;;;;14.87;46.67;100038.69;10419480;28;20049;-63
2024/02/29 10:54:45;;;;;;;22.58;19.50;;;;;;;15.41;45.47;100031.31;10415145;28;20056;-63
2024/02/29 10:59:52;;;;;;;21.70;17.98;;;;;;;15.69;45.07;100020.38;10420192;28;20052;-62
2024/02/29 11:04:55;;;;;;;25.15;19.15;;;;;;;15.98;43.88;100011.91;10403892;28;20659;-62
2024/02/29 11:09:58;;;;;;;23.95;19.50;;;;;;;16.35;42.88;100001.69;10406039;28;20304;-62
2024/02/29 11:14:59;;;;;;;23.40;19.90;;;;;;;16.60;41.98;99995.34;10407946;28;20060;-62
2024/02/29 11:20:09;;;;;;;24.65;19.52;;;;;;;17.00;42.27;99973.97;10417962;28;20059;-61
2024/02/29 11:25:19;;;;;;;24.00;20.10;;;;;;;17.67;40.94;99965.44;10389984;28;20044;-61
2024/02/29 11:30:23;;;;;;;22.65;19.65;;;;;;;18.08;39.02;99944.69;10420651;28;20499;-63
2024/02/29 11:35:26;;;;;;;19.73;17.67;;;;;;;18.33;38.20;99932.69;10437899;28;20045;-62
2024/02/29 11:40:31;;;;;;;22.40;18.15;;;;;;;18.83;37.10;99924.97;10424286;28;20088;-62
2024/02/29 11:45:33;;;;;;;23.08;18.42;;;;;;;19.51;37.17;99915.91;10433801;28;20498;-63
2024/02/29 11:50:34;;;;;;;20.20;17.92;;;;;;;19.91;35.34;99910.97;10421717;28;20048;-63
2024/02/29 11:55:36;;;;;;;19.67;17.58;;;;;;;20.24;34.52;99892.34;10432299;28;20052;-64
2024/02/29 12:00:37;;;;;;;20.23;17.95;;;;;;;20.57;34.21;99878.22;10435243;28;20084;-62
2024/02/29 12:05:39;;;;;;;21.25;16.15;;;;;;;20.98;33.47;99855.78;10428547;28;20335;-63
2024/02/29 12:10:44;;;;;;;18.70;16.55;;;;;;;21.25;32.67;99855.91;10419219;28;20144;-63
2024/02/29 12:15:50;;;;;;;17.80;15.93;;;;;;;21.93;31.60;99852.28;10384287;28;20730;-63
2024/02/29 12:20:54;;;;;;;18.13;16.05;;;;;;;21.96;31.10;99813.13;10429468;28;20048;-63
2024/02/29 12:26:11;;;;;;;16.55;14.73;;;;;;;22.33;30.07;99816.25;10434123;28;20049;-63
2024/02/29 12:31:13;;;;;;;15.95;14.02;;;;;;;23.20;28.64;99824.13;10412840;28;20697;-61
2024/02/29 12:36:16;;;;;;;15.47;13.87;;;;;;;24.03;27.97;99806.00;10437522;28;20107;-62
2024/02/29 12:41:17;;;;;;;14.43;13.00;;;;;;;25.01;26.08;99816.06;10412704;28;20056;-64
2024/02/29 12:46:19;;;;;;;13.50;12.10;;;;;;;26.08;24.26;99800.88;10419160;28;20152;-63
2024/02/29 12:51:21;;;;;;;13.43;10.63;;;;;;;26.44;23.66;99788.03;10442124;28;20051;-63
2024/02/29 12:56:23;;;;;;;11.98;10.57;;;;;;;27.16;22.70;99788.69;10427560;28;20099;-63
2024/02/29 13:01:24;;;;;;;12.73;11.38;;;;;;;28.25;21.98;99753.84;10434371;28;20083;-62
2024/02/29 13:06:26;;;;;;;12.43;11.17;;;;;;;29.47;21.01;99739.13;10404373;28;20076;-63
2024/02/29 13:11:28;;;;;;;12.88;11.57;;;;;;;29.60;19.92;99730.41;10394336;28;20072;-64
2024/02/29 13:16:30;;;;;;;12.30;11.00;;;;;;;30.81;19.64;99724.25;10426231;28;20517;-63
2024/02/29 13:21:34;;;;;;;10.02;9.13;;;;;;;30.63;18.50;99720.09;10433206;28;20056;-62
2024/02/29 13:26:36;;;;;;;11.10;10.10;;;;;;;30.79;18.07;99709.13;10442736;28;20068;-63
2024/02/29 13:31:38;;;;;;;9.75;8.60;;;;;;;31.19;18.06;99688.34;10421477;28;20652;-63
2024/02/29 13:36:40;;;;;;;10.88;9.88;;;;;;;31.01;17.64;99668.53;10412576;28;20068;-62
2024/02/29 13:41:42;;;;;;;11.75;10.65;;;;;;;31.59;17.08;99661.97;10424061;28;20059;-63
2024/02/29 13:46:44;;;;;;;11.27;10.27;;;;;;;30.94;17.84;99651.47;10444410;28;20093;-62
2024/02/29 13:51:46;;;;;;;12.55;11.30;;;;;;;31.00;17.95;99633.09;10423509;28;20711;-62
2024/02/29 13:56:51;;;;;;;11.00;10.00;;;;;;;31.11;17.93;99631.19;10440825;28;20135;-63
2024/02/29 14:01:53;;;;;;;12.70;11.43;;;;;;;31.53;18.02;99605.28;10421967;28;20049;-64
2024/02/29 14:06:54;;;;;;;13.20;11.90;;;;;;;31.59;17.63;99617.94;10406854;28;20457;-64
2024/02/29 14:11:56;;;;;;;12.30;10.43;;;;;;;32.51;17.14;99615.94;10408226;28;20053;-63
2024/02/29 14:16:57;;;;;;;12.80;11.50;;;;;;;32.27;17.47;99600.09;10431382;28;20087;-63
2024/02/29 14:22:00;;;;;;;12.50;11.20;;;;;;;31.98;17.54;99584.25;10429446;28;20044;-64
2024/02/29 14:27:02;;;;;;;11.73;10.63;;;;;;;31.81;17.16;99564.50;10399049;28;20074;-63
2024/02/29 14:32:04;;;;;;;11.70;10.48;;;;;;;31.19;17.25;99548.97;10427764;28;20049;-64
2024/02/29 14:37:08;;;;;;;13.15;11.90;;;;;;;31.52;17.61;99541.19;10439941;28;20132;-64
2024/02/29 14:42:10;;;;;;;11.57;10.48;;;;;;;31.13;17.43;99528.09;10436970;28;20045;-64
2024/02/29 14:47:11;;;;;;;11.82;10.73;;;;;;;31.13;18.28;99516.28;10433496;28;20057;-63
2024/02/29 14:52:13;;;;;;;12.35;11.05;;;;;;;31.37;17.15;99511.00;10436929;28;20668;-63
2024/02/29 14:57:15;;;;;;;11.88;10.77;;;;;;;30.64;18.60;99503.94;10415371;28;20306;-62
2024/02/29 15:02:16;;;;;;;11.20;10.07;;;;;;;28.17;20.73;99495.22;10434811;28;20057;-63
2024/02/29 15:07:18;;;;;;;;;;;;;;;27.71;20.99;99486.47;10436734;28;20522;-62
2024/02/29 15:12:20;;;;;;;12.35;10.55;;;;;;;25.14;24.17;99479.28;10438690;28;19924;-63
2024/02/29 15:17:22;;;;;;;11.15;10.05;;;;;;;22.59;27.28;99466.31;10440052;28;20521;-62
2024/02/29 15:22:24;;;;;;;11.75;10.60;;;;;;;21.31;28.90;99462.59;10428084;28;20056;-63
2024/02/29 15:27:28;;;;;;;;;;;;;;;20.36;30.59;99468.31;10384932;28;20414;-63
2024/02/29 15:32:30;;;;;;;10.75;9.75;;;;;;;19.51;31.91;99451.66;10417864;28;20078;-63
2024/02/29 15:37:31;;;;;;;13.60;10.98;;;;;;;18.95;32.93;99453.44;10409630;28;20689;-63
2024/02/29 15:42:34;;;;;;;12.18;10.07;;;;;;;18.43;34.28;99446.59;10407417;28;20097;-62
2024/02/29 15:47:35;;;;;;;10.98;9.88;;;;;;;18.11;35.36;99432.63;10423934;28;20056;-62
2024/02/29 15:52:39;;;;;;;14.57;12.23;;;;;;;17.69;36.42;99439.63;10420211;28;20510;-62
2024/02/29 15:57:42;;;;;;;11.73;10.57;;;;;;;17.35;37.39;99428.44;10415326;28;20092;-63
2024/02/29 16:02:44;;;;;;;14.73;11.63;;;;;;;17.07;37.90;99420.22;10405412;28;20109;-62
2024/02/29 16:07:45;;;;;;;12.85;11.13;;;;;;;16.75;38.76;99423.06;10417562;28;20043;-63
2024/02/29 16:12:49;;;;;;;13.73;11.10;;;;;;;16.38;39.71;99421.25;10435990;28;20670;-63
2024/02/29 16:17:52;;;;;;;13.45;10.32;;;;;;;16.07;40.31;99414.94;10432637;28;20619;-62
2024/02/29 16:22:53;;;;;;;12.98;11.60;;;;;;;15.89;40.61;99412.53;10393954;28;20161;-63
2024/02/29 16:27:55;;;;;;;12.90;11.43;;;;;;;15.71;41.78;99403.94;10433742;28;20044;-63
2024/02/29 16:32:56;;;;;;;14.00;12.13;;;;;;;15.51;42.43;99393.66;10435088;28;20051;-62
2024/02/29 16:38:00;;;;;;;13.50;12.10;;;;;;;15.41;42.67;99390.34;10420321;28;20052;-62
2024/02/29 16:43:03;;;;;;;15.93;11.77;;;;;;;15.26;43.09;99389.44;10417295;28;20040;-63
2024/02/29 16:48:05;;;;;;;14.82;13.07;;;;;;;15.01;43.72;99381.47;10400755;28;20071;-63
2024/02/29 16:53:07;;;;;;;13.40;11.65;;;;;;;14.81;44.16;99376.53;10415148;28;20071;-63
2024/02/29 16:58:09;;;;;;;15.63;12.73;;;;;;;14.62;45.01;99367.06;10421314;28;20049;-62
2024/02/29 17:03:10;;;;;;;14.32;11.93;;;;;;;14.54;45.23;99374.25;10436590;28;20059;-63
2024/02/29 17:08:12;;;;;;;15.40;13.57;;;;;;;14.43;45.87;99368.25;10431805;28;20131;-62
2024/02/29 17:13:19;;;;;;;14.23;11.95;;;;;;;14.28;45.97;99365.41;10402159;28;20060;-62
2024/02/29 17:18:21;;;;;;;15.98;13.57;;;;;;;14.21;46.79;99369.75;10426449;28;20117;-63
2024/02/29 17:23:23;;;;;;;17.02;13.95;;;;;;;13.96;47.33;99351.06;10429015;28;20138;-63
2024/02/29 17:28:24;;;;;;;22.45;19.15;;;;;;;13.95;47.93;99365.44;10440028;28;20055;-62
2024/02/29 17:33:25;;;;;;;21.80;17.92;;;;;;;13.89;47.42;99375.97;10435327;28;20076;-63
2024/02/29 17:38:27;;;;;;;23.60;20.20;;;;;;;13.73;48.05;99377.59;10413232;28;20072;-63
2024/02/29 17:43:28;;;;;;;24.77;21.20;;;;;;;13.52;48.78;99377.25;10432644;28;20070;-62
2024/02/29 17:48:29;;;;;;;22.45;19.67;;;;;;;13.25;49.35;99374.63;10439292;28;20048;-62
2024/02/29 17:53:33;;;;;;;23.75;19.48;;;;;;;13.14;49.88;99360.75;10420877;28;20057;-63
2024/02/29 17:58:35;;;;;;;24.13;20.50;;;;;;;13.11;50.05;99355.75;10402452;28;20110;-62
2024/02/29 18:03:36;;;;;;;22.95;18.70;;;;;;;13.11;50.35;99355.75;10404998;28;20135;-66
2024/02/29 18:08:38;;;;;;;21.05;17.08;;;;;;;13.04;50.21;99350.19;10426557;28;20485;-67
2024/02/29 18:13:39;;;;;;;23.73;18.73;;;;;;;12.93;50.49;99343.31;10430255;28;20105;-65
2024/02/29 18:18:42;;;;;;;19.83;17.35;;;;;;;12.75;51.27;99342.56;10426603;28;20467;-66
2024/02/29 18:23:43;;;;;;;24.30;21.08;;;;;;;12.66;51.59;99347.84;10418683;28;21066;-63
2024/02/29 18:28:45;;;;;;;31.58;25.35;;;;;;;12.59;51.48;99346.81;10409916;28;20050;-64
2024/02/29 18:33:47;;;;;;;29.52;23.90;;;;;;;12.59;51.46;99337.97;10434075;28;20049;-64
2024/02/29 18:38:48;;;;;;;28.65;24.08;;;;;;;12.46;51.81;99349.06;10410544;28;20064;-64
2024/02/29 18:43:50;;;;;;;26.98;23.25;;;;;;;12.34;51.92;99338.69;10408211;28;20055;-64
2024/02/29 18:48:52;;;;;;;22.98;19.55;;;;;;;12.28;52.38;99327.78;10426940;28;20049;-64
2024/02/29 18:53:54;;;;;;;23.33;20.17;;;;;;;12.15;53.00;99317.53;10385983;28;20056;-64
2024/02/29 18:58:56;;;;;;;24.20;20.45;;;;;;;12.11;52.97;99322.34;10401492;28;20141;-64
2024/02/29 19:03:58;;;;;;;22.90;19.67;;;;;;;11.99;53.24;99308.44;10408840;28;20057;-65
2024/02/29 19:08:59;;;;;;;22.88;19.00;;;;;;;11.91;53.64;99311.00;10424152;28;20126;-63
2024/02/29 19:14:01;;;;;;;22.60;19.73;;;;;;;11.79;54.10;99304.25;10432941;28;20116;-64
2024/02/29 19:19:03;;;;;;;23.73;19.48;;;;;;;11.56;54.61;99285.22;10413270;28;20659;-64
2024/02/29 19:24:07;;;;;;;24.27;19.42;;;;;;;11.55;54.95;99299.56;10426787;28;20041;-64
2024/02/29 19:29:09;;;;;;;24.98;19.92;;;;;;;11.55;55.24;99295.03;10432806;28;20079;-64
2024/02/29 19:34:11;;;;;;;23.35;19.85;;;;;;;11.49;55.71;99290.34;10437953;28;20127;-63
2024/02/29 19:39:13;;;;;;;23.92;18.88;;;;;;;11.45;55.44;99291.63;10403659;28;20056;-62
2024/02/29 19:44:15;;;;;;;25.90;19.83;;;;;;;11.35;55.98;99265.06;10419451;28;20057;-63
2024/02/29 19:49:18;;;;;;;22.02;17.98;;;;;;;11.34;56.24;99259.91;10371799;28;20045;-64
2024/02/29 19:54:19;;;;;;;24.13;18.85;;;;;;;11.32;56.91;99257.38;10402168;28;20166;-65
2024/02/29 19:59:21;;;;;;;23.83;18.80;;;;;;;11.29;57.17;99266.50;10428884;28;20421;-62
2024/02/29 20:04:22;;;;;;;22.02;19.42;;;;;;;11.22;57.46;99253.94;10429543;28;20170;-64
2024/02/29 20:09:29;;;;;;;25.48;19.85;;;;;;;11.09;58.12;99252.50;10434216;28;20583;-65
2024/02/29 20:14:31;;;;;;;23.77;18.42;;;;;;;11.07;58.31;99250.97;10424906;28;20150;-64
2024/02/29 20:19:32;;;;;;;24.27;20.50;;;;;;;10.91;58.63;99259.63;10422487;28;20114;-63
2024/02/29 20:24:36;;;;;;;25.33;19.05;;;;;;;10.87;59.03;99253.78;10406372;28;20095;-65
2024/02/29 20:29:39;;;;;;;22.17;18.30;;;;;;;10.76;59.21;99235.34;10382611;28;20070;-63
2024/02/29 20:34:41;;;;;;;23.50;17.83;;;;;;;10.76;59.65;99251.31;10427984;28;20049;-64
2024/02/29 20:39:45;;;;;;;23.02;18.55;;;;;;;10.77;59.43;99239.69;10412815;28;20071;-64
2024/02/29 20:44:46;;;;;;;21.53;17.77;;;;;;;10.70;60.01;99242.09;10430637;28;20053;-64
2024/02/29 20:49:48;;;;;;;23.50;18.75;;;;;;;10.60;59.67;99241.34;10433413;28;20663;-65
2024/02/29 20:54:50;;;;;;;22.48;19.33;;;;;;;10.57;60.39;99233.66;10385387;28;20048;-64
2024/02/29 20:59:51;;;;;;;22.23;17.27;;;;;;;10.38;60.91;99226.59;10424806;28;20049;-63
2024/02/29 21:04:53;;;;;;;20.80;17.70;;;;;;;10.43;60.98;99241.13;10408112;28;20206;-65
2024/02/29 21:09:56;;;;;;;20.83;17.55;;;;;;;10.25;61.69;99233.06;10426253;28;20450;-64
2024/02/29 21:14:58;;;;;;;20.58;16.77;;;;;;;10.30;61.75;99229.09;10409846;28;20056;-64
2024/02/29 21:19:59;;;;;;;22.20;16.52;;;;;;;10.13;62.07;99212.94;10384318;28;20041;-64
2024/02/29 21:25:04;;;;;;;18.10;15.25;;;;;;;10.14;62.18;99213.78;10408322;28;20057;-62
2024/02/29 21:30:07;;;;;;;20.85;16.25;;;;;;;10.02;62.82;99223.75;10432467;28;20078;-63
2024/02/29 21:35:08;;;;;;;22.33;16.75;;;;;;;10.06;62.68;99225.16;10434958;28;20073;-64
2024/02/29 21:40:12;;;;;;;18.55;15.65;;;;;;;10.01;62.85;99206.13;10435576;28;20057;-62
2024/02/29 21:45:13;;;;;;;26.35;16.80;;;;;;;9.88;63.38;99215.25;10433393;28;20056;-63
2024/02/29 21:50:15;;;;;;;20.63;15.48;;;;;;;9.79;63.64;99209.97;10436379;28;20045;-63
2024/02/29 21:55:17;;;;;;;21.17;16.42;;;;;;;9.76;64.32;99211.09;10434717;28;20221;-63
2024/02/29 22:00:20;;;;;;;19.15;15.07;;;;;;;9.78;64.00;99206.47;10435075;28;20048;-64
2024/02/29 22:05:22;;;;;;;19.88;16.05;;;;;;;9.69;64.31;99197.53;10432373;28;20077;-64
2024/02/29 22:10:24;;;;;;;20.83;16.30;;;;;;;9.71;64.29;99192.09;10433971;28;20113;-63
2024/02/29 22:15:27;;;;;;;18.33;16.00;;;;;;;9.55;64.50;99172.28;10429492;28;20130;-64
2024/02/29 22:20:29;;;;;;;17.52;14.48;;;;;;;9.43;64.55;99162.81;10430056;28;20052;-65
2024/02/29 22:25:30;;;;;;;18.67;15.50;;;;;;;9.62;64.61;99185.81;10401362;28;20132;-64
2024/02/29 22:30:35;;;;;;;19.55;15.35;;;;;;;9.49;65.20;99188.78;10441451;28;20056;-62
2024/02/29 22:35:38;;;;;;;22.45;17.00;;;;;;;9.44;65.26;99183.03;10430372;28;20041;-63
2024/02/29 22:40:39;;;;;;;19.10;15.73;;;;;;;9.42;65.29;99187.69;10428558;28;20074;-63
2024/02/29 22:45:42;;;;;;;21.13;16.65;;;;;;;9.41;65.22;99185.16;10436005;28;20040;-64
2024/02/29 22:50:43;;;;;;;19.50;14.90;;;;;;;9.34;65.36;99182.25;10420444;28;20416;-63
2024/02/29 22:55:46;;;;;;;20.20;15.13;;;;;;;9.34;65.74;99184.91;10436225;28;20044;-63
2024/02/29 23:00:50;;;;;;;23.30;16.45;;;;;;;9.18;65.62;99167.72;10434813;28;20040;-63